Time;durP1;ratioP1;P1;durP2;ratioP2;P2;SDS_P1;SDS_P2;PMS_P1;PMS_P2;Temp;Humidity;BMP_temperature;BMP_pressure;BME280_temperature;BME280_humidity;BME280_pressure;Samples;Min_cycle;Max_cycle;Signal;HPM_P1;HPM_P2
2022/06/01 00:02:15;;;;;;;2.37;2.17;;;12.80;99.90;;;;;;5024604;28;20234;-65
2022/06/01 00:04:44;;;;;;;2.43;1.93;;;12.70;99.90;;;;;;5023357;28;20711;-65
2022/06/01 00:07:14;;;;;;;2.20;2.00;;;12.60;99.90;;;;;;5025016;28;20227;-65
2022/06/01 00:09:42;;;;;;;2.80;2.10;;;12.60;99.90;;;;;;5024664;28;20380;-65
2022/06/01 00:12:11;;;;;;;2.20;2.00;;;12.60;99.90;;;;;;5024564;28;20228;-65
2022/06/01 00:14:39;;;;;;;3.77;2.30;;;12.60;99.90;;;;;;5023617;28;20262;-65
2022/06/01 00:17:07;;;;;;;4.03;2.00;;;12.60;99.90;;;;;;5023281;28;20240;-65
2022/06/01 00:19:35;;;;;;;2.20;2.00;;;12.50;99.90;;;;;;5024402;28;20266;-65
2022/06/01 00:22:14;;;;;;;4.10;1.87;;;12.50;99.90;;;;;;5024170;28;20231;-65
2022/06/01 00:24:45;;;;;;;2.20;2.00;;;12.40;99.90;;;;;;5022805;28;20318;-65
2022/06/01 00:27:15;;;;;;;2.53;2.20;;;12.30;99.90;;;;;;5024663;28;20715;-65
2022/06/01 00:29:43;;;;;;;3.00;2.30;;;12.30;99.90;;;;;;5022969;28;20232;-65
2022/06/01 00:32:13;;;;;;;2.23;2.00;;;12.20;99.90;;;;;;5023795;28;20243;-65
2022/06/01 00:34:41;;;;;;;2.60;2.33;;;12.20;99.90;;;;;;5022692;28;21129;-65
2022/06/01 00:37:10;;;;;;;2.87;2.20;;;12.20;99.90;;;;;;5024186;28;20233;-65
2022/06/01 00:39:39;;;;;;;2.37;2.17;;;12.20;99.90;;;;;;5024109;28;20227;-65
2022/06/01 00:42:16;;;;;;;2.27;2.07;;;12.20;99.90;;;;;;5024482;28;20261;-65
2022/06/01 00:44:45;;;;;;;2.17;1.97;;;12.10;99.90;;;;;;5022771;28;20233;-65
2022/06/01 00:47:15;;;;;;;2.40;2.20;;;12.10;99.90;;;;;;5023894;28;20232;-65
2022/06/01 00:49:47;;;;;;;2.67;2.10;;;12.10;99.90;;;;;;5024215;28;20595;-65
2022/06/01 00:52:16;;;;;;;2.47;2.00;;;12.10;99.90;;;;;;5023655;28;20568;-65
2022/06/01 00:54:44;;;;;;;2.23;2.00;;;12.00;99.90;;;;;;5022650;28;20216;-65
2022/06/01 00:57:15;;;;;;;2.43;2.23;;;12.00;99.90;;;;;;5023536;28;20248;-65
2022/06/01 00:59:46;;;;;;;2.30;2.10;;;12.00;99.90;;;;;;5023897;28;20565;-65
2022/06/01 01:02:15;;;;;;;2.90;2.37;;;12.00;99.90;;;;;;5023862;28;20715;-65
2022/06/01 01:04:44;;;;;;;2.20;2.00;;;12.00;99.90;;;;;;5021930;28;20227;-65
2022/06/01 01:07:12;;;;;;;2.17;2.03;;;12.00;99.90;;;;;;5023584;28;20227;-65
2022/06/01 01:09:41;;;;;;;2.70;2.30;;;12.00;99.90;;;;;;5023943;28;20236;-65
2022/06/01 01:12:12;;;;;;;2.33;2.07;;;12.00;99.90;;;;;;5023032;28;20238;-65
2022/06/01 01:14:45;;;;;;;2.27;2.10;;;11.90;99.90;;;;;;5021889;28;20239;-65
2022/06/01 01:17:14;;;;;;;2.40;2.20;;;11.90;99.90;;;;;;5023283;28;20240;-65
2022/06/01 01:19:46;;;;;;;2.33;1.97;;;11.90;99.90;;;;;;5023073;28;20259;-65
2022/06/01 01:22:36;;;;;;;2.40;2.20;;;11.90;99.90;;;;;;5023522;28;20770;-65
2022/06/01 01:25:20;;;;;;;3.50;2.20;;;11.90;99.90;;;;;;5021865;28;20232;-66
2022/06/01 01:27:52;;;;;;;2.87;2.57;;;11.90;99.90;;;;;;5023576;28;20250;-65
2022/06/01 01:30:34;;;;;;;2.70;2.23;;;11.80;99.90;;;;;;5023977;28;21055;-65
2022/06/01 01:33:03;;;;;;;2.57;2.20;;;11.80;99.90;;;;;;5022799;28;20715;-65
2022/06/01 01:35:32;;;;;;;4.00;2.10;;;11.80;99.90;;;;;;5021984;28;20703;-65
2022/06/01 01:38:02;;;;;;;2.33;2.10;;;11.70;99.90;;;;;;5022561;28;20339;-65
2022/06/01 01:40:31;;;;;;;3.83;2.50;;;11.70;99.90;;;;;;5022737;28;20240;-65
2022/06/01 01:43:02;;;;;;;2.53;2.30;;;11.70;99.90;;;;;;5022804;28;20334;-65
2022/06/01 01:45:32;;;;;;;2.50;2.30;;;11.70;99.90;;;;;;5021451;28;20618;-65
2022/06/01 01:48:01;;;;;;;2.63;2.10;;;11.60;99.90;;;;;;5022685;28;20256;-65
2022/06/01 01:50:29;;;;;;;2.80;2.30;;;11.60;99.90;;;;;;5022883;28;20331;-66
2022/06/01 01:52:57;;;;;;;2.40;2.20;;;11.60;99.90;;;;;;5022813;28;20236;-65
2022/06/01 01:55:45;;;;;;;3.03;2.57;;;11.50;99.90;;;;;;5020993;28;20238;-65
2022/06/01 01:58:23;;;;;;;3.83;2.40;;;11.50;99.90;;;;;;5022655;28;20323;-65
2022/06/01 02:00:58;;;;;;;3.03;2.50;;;11.50;99.90;;;;;;5022341;28;20219;-65
2022/06/01 02:03:31;;;;;;;2.57;2.37;;;11.40;99.90;;;;;;5022391;28;20244;-65
2022/06/01 02:06:04;;;;;;;2.40;2.20;;;11.40;99.90;;;;;;5020677;28;20239;-65
2022/06/01 02:08:37;;;;;;;3.97;2.60;;;11.40;99.90;;;;;;5022786;28;20271;-65
2022/06/01 02:14:02;;;;;;;3.93;2.70;;;11.40;99.90;;;;;;5022469;28;20734;-66
2022/06/01 02:16:35;;;;;;;3.33;2.70;;;11.40;99.90;;;;;;5022073;28;20263;-65
2022/06/01 02:19:08;;;;;;;3.33;2.80;;;11.30;99.90;;;;;;5021992;28;20337;-65
2022/06/01 02:21:37;;;;;;;3.30;3.00;;;11.30;99.90;;;;;;5022430;28;20235;-65
2022/06/01 02:24:06;;;;;;;4.30;3.53;;;11.30;99.90;;;;;;5021081;28;20674;-65
2022/06/01 02:26:36;;;;;;;4.00;3.50;;;11.30;99.90;;;;;;5021873;28;20228;-65
2022/06/01 02:29:09;;;;;;;3.33;3.03;;;11.30;99.90;;;;;;5022510;28;20359;-65
2022/06/01 02:31:38;;;;;;;4.07;3.47;;;11.30;99.90;;;;;;5022074;28;20281;-65
2022/06/01 02:34:09;;;;;;;5.73;3.63;;;11.30;99.90;;;;;;5021954;28;20246;-65
2022/06/01 02:36:40;;;;;;;4.50;3.53;;;11.30;99.90;;;;;;5021919;28;20284;-65
2022/06/01 02:39:10;;;;;;;3.73;3.37;;;11.30;99.90;;;;;;5022483;28;20242;-66
2022/06/01 02:44:25;;;;;;;4.33;3.93;;;11.30;99.90;;;;;;5020795;28;20302;-65
2022/06/01 02:46:53;;;;;;;4.00;3.70;;;11.30;99.90;;;;;;5021432;28;20231;-65
2022/06/01 02:49:21;;;;;;;4.97;4.10;;;11.30;99.90;;;;;;5022161;28;20239;-65
2022/06/01 02:51:49;;;;;;;4.63;4.17;;;11.20;99.90;;;;;;5022426;28;20238;-66
2022/06/01 02:54:17;;;;;;;7.63;3.70;;;11.20;99.90;;;;;;5020288;28;20754;-65
2022/06/01 02:56:49;;;;;;;4.90;3.87;;;11.20;99.90;;;;;;5022217;28;20250;-65
2022/06/01 02:59:18;;;;;;;4.57;4.17;;;11.20;99.90;;;;;;5022221;28;20242;-65
2022/06/01 03:01:46;;;;;;;4.40;4.00;;;11.20;99.90;;;;;;5021860;28;20257;-65
2022/06/01 03:04:14;;;;;;;6.93;4.33;;;11.20;99.90;;;;;;5020644;28;20249;-65
2022/06/01 03:06:42;;;;;;;4.73;3.93;;;11.20;99.90;;;;;;5021815;28;20275;-66
2022/06/01 03:09:30;;;;;;;4.57;4.00;;;11.20;99.90;;;;;;5021880;28;20236;-65
2022/06/01 03:12:00;;;;;;;4.67;4.03;;;11.20;99.90;;;;;;5021424;28;20239;-65
2022/06/01 03:14:28;;;;;;;4.43;4.03;;;11.20;99.90;;;;;;5020273;28;20325;-65
2022/06/01 03:16:56;;;;;;;4.27;3.87;;;11.20;99.90;;;;;;5021775;28;20226;-66
2022/06/01 03:19:25;;;;;;;5.80;4.70;;;11.20;99.90;;;;;;5021224;28;20824;-66
2022/06/01 03:21:53;;;;;;;5.17;4.07;;;11.20;99.90;;;;;;5021633;28;20313;-65
2022/06/01 03:24:22;;;;;;;5.27;4.17;;;11.30;99.90;;;;;;5020305;28;20587;-65
2022/06/01 03:26:50;;;;;;;5.57;4.20;;;11.30;99.90;;;;;;5021756;28;20297;-65
2022/06/01 03:29:27;;;;;;;4.20;3.80;;;11.30;99.90;;;;;;5022133;28;20239;-66
2022/06/01 03:31:56;;;;;;;4.63;3.83;;;11.40;99.90;;;;;;5026138;28;20257;-66
2022/06/01 03:34:26;;;;;;;4.37;3.97;;;11.40;99.90;;;;;;5043333;28;20235;-65
2022/06/01 03:36:54;;;;;;;5.13;4.10;;;11.40;99.90;;;;;;5046669;28;20222;-66
2022/06/01 03:39:22;;;;;;;4.30;3.83;;;11.40;99.90;;;;;;5047094;28;20708;-66
2022/06/01 03:41:50;;;;;;;4.67;4.23;;;11.50;99.90;;;;;;5044596;28;20312;-65
2022/06/01 03:47:09;;;;;;;4.53;3.90;;;11.50;99.90;;;;;;5044772;28;20706;-65
2022/06/01 03:49:38;;;;;;;5.47;3.87;;;11.50;99.90;;;;;;5044633;28;20310;-65
2022/06/01 03:52:08;;;;;;;4.00;3.47;;;11.50;99.90;;;;;;5045074;28;20229;-65
2022/06/01 03:54:36;;;;;;;4.10;3.80;;;11.50;99.90;;;;;;5044510;28;20238;-65
2022/06/01 03:57:04;;;;;;;3.70;3.40;;;11.50;99.90;;;;;;5046705;28;20219;-65
2022/06/01 03:59:33;;;;;;;5.07;4.17;;;11.50;99.90;;;;;;5044873;28;20324;-66
2022/06/01 04:02:01;;;;;;;5.13;4.00;;;11.50;99.90;;;;;;5044198;28;20266;-65
2022/06/01 04:04:31;;;;;;;4.13;3.73;;;11.50;99.90;;;;;;5043279;28;21058;-65
2022/06/01 04:06:59;;;;;;;4.27;3.70;;;11.50;99.90;;;;;;5044487;28;20594;-65
2022/06/01 04:09:29;;;;;;;4.17;3.77;;;11.50;99.90;;;;;;5044876;28;20238;-65
2022/06/01 04:11:58;;;;;;;3.90;3.60;;;11.50;99.90;;;;;;5044134;28;20282;-65
2022/06/01 04:14:26;;;;;;;4.37;3.53;;;11.50;99.90;;;;;;5042460;28;20240;-65
2022/06/01 04:16:54;;;;;;;3.97;3.60;;;11.60;99.90;;;;;;5043873;28;20227;-66
2022/06/01 04:19:22;;;;;;;5.50;3.43;;;11.60;99.90;;;;;;5044659;28;20249;-65
2022/06/01 04:21:54;;;;;;;6.13;3.67;;;11.60;99.90;;;;;;5045248;28;20333;-65
2022/06/01 04:24:27;;;;;;;5.37;4.20;;;11.70;99.90;;;;;;5042956;28;21005;-65
2022/06/01 04:26:55;;;;;;;4.00;3.60;;;11.70;99.90;;;;;;5044294;28;20695;-65
2022/06/01 04:29:23;;;;;;;3.83;3.43;;;11.60;99.90;;;;;;5044333;28;20713;-66
2022/06/01 04:32:02;;;;;;;3.57;3.27;;;11.70;99.90;;;;;;5044112;28;20378;-65
2022/06/01 04:34:31;;;;;;;3.93;3.37;;;11.70;99.90;;;;;;5044277;28;20344;-66
2022/06/01 04:37:01;;;;;;;3.83;3.53;;;11.70;99.90;;;;;;5044969;28;20237;-66
2022/06/01 04:39:29;;;;;;;9.70;3.57;;;11.70;99.90;;;;;;5043552;28;20859;-65
2022/06/01 04:41:57;;;;;;;7.00;4.37;;;11.70;99.90;;;;;;5043591;28;20241;-65
2022/06/01 04:44:26;;;;;;;5.03;4.60;;;11.60;99.90;;;;;;5042967;28;20866;-65
2022/06/01 04:46:54;;;;;;;5.47;4.97;;;11.50;99.90;;;;;;5043550;28;20586;-65
2022/06/01 04:49:24;;;;;;;5.77;4.50;;;11.50;99.90;;;;;;5043735;28;20288;-65
2022/06/01 04:51:52;;;;;;;5.03;4.20;;;11.50;99.90;;;;;;5043221;28;20245;-64
2022/06/01 04:54:22;;;;;;;6.40;5.40;;;11.40;99.90;;;;;;5042457;28;20238;-65
2022/06/01 04:56:50;;;;;;;7.57;4.97;;;11.40;99.90;;;;;;5043805;28;20234;-64
2022/06/01 04:59:18;;;;;;;8.80;5.73;;;11.30;99.90;;;;;;5043528;28;20701;-64
2022/06/01 05:01:46;;;;;;;7.37;5.63;;;11.30;99.90;;;;;;5041994;28;20849;-65
2022/06/01 05:04:15;;;;;;;5.97;5.03;;;11.30;99.90;;;;;;5040807;28;20223;-64
2022/06/01 05:06:43;;;;;;;7.97;5.53;;;11.20;99.90;;;;;;5042559;28;20616;-64
2022/06/01 05:09:11;;;;;;;5.87;4.80;;;11.20;99.90;;;;;;5042413;28;20221;-64
2022/06/01 05:11:41;;;;;;;6.00;5.03;;;11.20;99.90;;;;;;5041498;28;20231;-64
2022/06/01 05:14:09;;;;;;;6.40;5.23;;;11.20;99.90;;;;;;5042128;28;20290;-64
2022/06/01 05:16:37;;;;;;;6.00;5.43;;;11.20;99.90;;;;;;5042629;28;20590;-64
2022/06/01 05:19:06;;;;;;;6.47;5.17;;;11.20;99.90;;;;;;5042192;28;20246;-64
2022/06/01 05:21:34;;;;;;;7.37;5.67;;;11.20;99.90;;;;;;5042889;28;20234;-64
2022/06/01 05:24:04;;;;;;;6.63;5.80;;;11.20;99.90;;;;;;5042964;28;20704;-64
2022/06/01 05:26:32;;;;;;;6.87;5.73;;;11.20;99.90;;;;;;5041912;28;20245;-64
2022/06/01 05:29:01;;;;;;;6.83;5.90;;;11.20;99.90;;;;;;5042254;28;20733;-64
2022/06/01 05:31:29;;;;;;;6.63;5.87;;;11.20;99.90;;;;;;5042222;28;20568;-64
2022/06/01 05:33:58;;;;;;;6.23;5.30;;;11.20;99.90;;;;;;5041481;28;20320;-64
2022/06/01 05:36:26;;;;;;;6.50;5.67;;;11.20;99.90;;;;;;5042015;28;20329;-64
2022/06/01 05:38:54;;;;;;;6.20;5.60;;;11.20;99.90;;;;;;5042491;28;20719;-64
2022/06/01 05:41:22;;;;;;;6.17;5.63;;;11.30;99.90;;;;;;5042278;28;20705;-64
2022/06/01 05:43:51;;;;;;;7.33;5.90;;;11.30;99.90;;;;;;5042240;28;20226;-64
2022/06/01 05:46:21;;;;;;;6.53;5.93;;;11.30;99.90;;;;;;5040085;28;20359;-64
2022/06/01 05:48:49;;;;;;;7.07;6.27;;;11.30;99.90;;;;;;5042208;28;20248;-64
2022/06/01 05:51:17;;;;;;;6.70;6.07;;;11.30;99.90;;;;;;5041971;28;20710;-64
2022/06/01 05:53:46;;;;;;;6.57;5.97;;;11.30;99.90;;;;;;5041582;28;20269;-64
2022/06/01 05:56:14;;;;;;;7.37;6.67;;;11.30;99.90;;;;;;5040242;28;20252;-64
2022/06/01 05:58:42;;;;;;;7.20;6.50;;;11.40;99.90;;;;;;5040719;28;20761;-64
2022/06/01 06:01:10;;;;;;;8.20;7.40;;;11.30;99.90;;;;;;5041315;28;20240;-64
2022/06/01 06:03:39;;;;;;;7.87;7.17;;;11.30;99.90;;;;;;5041477;28;20231;-64
2022/06/01 06:06:15;;;;;;;9.27;8.47;;;11.40;99.90;;;;;;5039523;28;20317;-64
2022/06/01 06:08:46;;;;;;;8.90;8.10;;;11.30;99.90;;;;;;5041799;28;20226;-64
2022/06/01 06:11:23;;;;;;;9.97;8.93;;;11.30;99.90;;;;;;5041678;28;20241;-64
2022/06/01 06:13:51;;;;;;;9.63;8.73;;;11.30;99.90;;;;;;5042544;28;20258;-64
2022/06/01 06:16:20;;;;;;;10.60;9.60;;;11.40;99.90;;;;;;5040449;28;20231;-64
2022/06/01 06:18:50;;;;;;;10.13;9.03;;;11.40;99.90;;;;;;5039358;28;20258;-64
2022/06/01 06:21:19;;;;;;;10.53;9.53;;;11.40;99.90;;;;;;5036563;28;20238;-64
2022/06/01 06:23:47;;;;;;;10.80;9.70;;;11.40;99.90;;;;;;5035800;28;20727;-64
2022/06/01 06:26:15;;;;;;;10.00;9.10;;;11.40;99.90;;;;;;5034064;28;21012;-64
2022/06/01 06:28:44;;;;;;;10.30;9.40;;;11.30;99.90;;;;;;5035271;28;20785;-64
2022/06/01 06:31:12;;;;;;;10.07;9.17;;;11.30;99.90;;;;;;5035791;28;20241;-64
2022/06/01 06:33:41;;;;;;;10.30;9.40;;;11.30;99.90;;;;;;5036177;28;20234;-64
2022/06/01 06:36:11;;;;;;;10.03;9.03;;;11.40;99.90;;;;;;5034670;28;20230;-64
2022/06/01 06:38:40;;;;;;;9.80;8.87;;;11.40;99.90;;;;;;5041665;28;21293;-64
2022/06/01 06:41:10;;;;;;;10.13;8.73;;;11.40;99.90;;;;;;5041686;28;20246;-64
2022/06/01 06:43:40;;;;;;;9.33;8.43;;;11.40;99.90;;;;;;5041870;28;20236;-64
2022/06/01 06:46:10;;;;;;;11.10;8.60;;;11.50;99.90;;;;;;5039729;28;20245;-64
2022/06/01 06:48:39;;;;;;;9.37;8.47;;;11.50;99.90;;;;;;5041765;28;20567;-64
2022/06/01 06:51:10;;;;;;;9.90;8.90;;;11.60;99.90;;;;;;5040905;28;20333;-64
2022/06/01 06:53:39;;;;;;;9.07;8.27;;;11.60;99.90;;;;;;5041689;28;20240;-64
2022/06/01 06:56:07;;;;;;;8.50;7.70;;;11.70;99.90;;;;;;5039727;28;20240;-64
2022/06/01 06:58:37;;;;;;;8.43;7.70;;;11.80;99.90;;;;;;5041317;28;20982;-64
2022/06/01 07:01:06;;;;;;;9.30;8.13;;;11.80;99.90;;;;;;5041795;28;20231;-64
2022/06/01 07:03:34;;;;;;;9.07;8.27;;;11.90;99.90;;;;;;5040216;28;20362;-64
2022/06/01 07:06:17;;;;;;;9.70;8.77;;;12.00;99.90;;;;;;5039593;28;20239;-64
2022/06/01 07:08:50;;;;;;;9.03;8.10;;;12.00;99.90;;;;;;5041864;28;20233;-64
2022/06/01 07:11:20;;;;;;;8.57;7.77;;;12.10;99.90;;;;;;5047060;28;20650;-64
2022/06/01 07:13:50;;;;;;;8.63;7.83;;;12.10;99.90;;;;;;5047443;28;20364;-64
2022/06/01 07:16:21;;;;;;;8.60;7.80;;;12.20;99.90;;;;;;5045309;28;20238;-64
2022/06/01 07:18:51;;;;;;;7.83;7.03;;;12.20;99.90;;;;;;5047150;28;20344;-64
2022/06/01 07:21:21;;;;;;;7.77;6.80;;;12.40;99.90;;;;;;5044803;28;20304;-64
2022/06/01 07:23:51;;;;;;;7.60;6.63;;;12.40;99.90;;;;;;5046445;28;20239;-64
2022/06/01 07:26:21;;;;;;;7.37;6.77;;;12.50;99.90;;;;;;5044637;28;20330;-64
2022/06/01 07:28:49;;;;;;;7.07;6.47;;;12.50;99.90;;;;;;5046163;28;20620;-64
2022/06/01 07:31:18;;;;;;;6.20;5.60;;;12.50;99.90;;;;;;5046188;28;20230;-64
2022/06/01 07:33:47;;;;;;;6.20;5.70;;;12.50;99.90;;;;;;5046073;28;20253;-64
2022/06/01 07:36:17;;;;;;;7.07;6.13;;;12.60;99.90;;;;;;5043748;28;20318;-64
2022/06/01 07:44:38;;;;;;;6.63;6.03;;;12.80;99.90;;;;;;5044235;28;20241;-64
2022/06/01 07:47:06;;;;;;;6.37;5.80;;;12.90;99.90;;;;;;5046616;28;20573;-64
2022/06/01 07:49:54;;;;;;;5.47;5.07;;;13.10;99.90;;;;;;5045941;28;20725;-64
2022/06/01 07:52:42;;;;;;;5.70;5.20;;;13.20;99.90;;;;;;5045973;28;20324;-64
2022/06/01 07:55:10;;;;;;;5.60;5.10;;;13.70;99.90;;;;;;5043546;28;20241;-64
2022/06/01 07:57:40;;;;;;;4.50;4.10;;;14.50;99.90;;;;;;5045486;28;20317;-64
2022/06/01 08:00:09;;;;;;;4.47;4.17;;;15.10;99.90;;;;;;5045630;28;20715;-64
2022/06/01 08:02:41;;;;;;;4.67;4.27;;;15.30;99.90;;;;;;5045864;28;20237;-64
2022/06/01 08:05:13;;;;;;;4.10;3.80;;;15.40;99.90;;;;;;5044260;28;20331;-65
2022/06/01 08:07:41;;;;;;;3.87;3.57;;;15.40;99.90;;;;;;5045185;28;20900;-64
2022/06/01 08:10:11;;;;;;;3.60;3.30;;;15.50;99.90;;;;;;5046641;28;20591;-65
2022/06/01 08:15:27;;;;;;;3.87;2.43;;;16.60;99.90;;;;;;5044438;28;20298;-64
2022/06/01 08:17:55;;;;;;;2.50;2.30;;;17.60;99.90;;;;;;5046239;28;20228;-64
2022/06/01 08:20:24;;;;;;;3.00;2.20;;;18.10;99.90;;;;;;5045738;28;20579;-64
2022/06/01 08:22:52;;;;;;;2.30;2.10;;;18.00;99.90;;;;;;5044818;28;20793;-64
2022/06/01 08:25:22;;;;;;;2.00;1.80;;;17.80;99.90;;;;;;5043145;28;20229;-64
2022/06/01 08:27:52;;;;;;;2.23;2.00;;;17.60;99.90;;;;;;5044987;28;20313;-64
2022/06/01 08:30:23;;;;;;;2.20;2.00;;;17.30;99.90;;;;;;5045093;28;20695;-64
2022/06/01 08:32:53;;;;;;;2.00;1.90;;;17.10;99.90;;;;;;5043474;28;20232;-64
2022/06/01 08:35:23;;;;;;;2.73;2.47;;;17.00;99.90;;;;;;5042386;28;21070;-64
2022/06/01 08:37:51;;;;;;;2.17;2.07;;;16.90;99.90;;;;;;5044044;28;20783;-65
2022/06/01 08:40:23;;;;;;;3.00;2.80;;;16.80;99.90;;;;;;5044648;28;20224;-65
2022/06/01 08:42:58;;;;;;;4.10;3.70;;;16.70;99.90;;;;;;5044755;28;20285;-65
2022/06/01 08:45:27;;;;;;;4.10;3.50;;;16.70;99.90;;;;;;5041693;28;20301;-65
2022/06/01 08:48:05;;;;;;;3.83;3.53;;;16.70;99.90;;;;;;5045548;28;20274;-65
2022/06/01 08:50:36;;;;;;;4.30;4.00;;;16.70;99.90;;;;;;5045980;28;20232;-65
2022/06/01 08:53:07;;;;;;;4.70;4.30;;;16.80;99.90;;;;;;5045794;28;20288;-65
2022/06/01 08:55:46;;;;;;;4.33;3.93;;;16.80;99.90;;;;;;5043535;28;20228;-65
2022/06/01 08:58:19;;;;;;;4.23;3.90;;;16.80;99.90;;;;;;5043657;28;20626;-65
2022/06/01 09:00:55;;;;;;;5.17;3.87;;;16.80;99.90;;;;;;5043910;28;20224;-65
2022/06/01 09:03:32;;;;;;;3.70;3.40;;;17.00;99.90;;;;;;5044011;28;20293;-65
2022/06/01 09:06:12;;;;;;;4.60;4.20;;;17.10;99.90;;;;;;5041526;28;20223;-65
2022/06/01 09:08:45;;;;;;;4.30;3.90;;;17.30;99.90;;;;;;5043824;28;20538;-65
2022/06/01 09:11:16;;;;;;;3.73;3.40;;;17.50;99.90;;;;;;5045154;28;21341;-65
2022/06/01 09:13:53;;;;;;;3.80;3.50;;;17.70;99.90;;;;;;5045821;28;20320;-65
2022/06/01 09:16:25;;;;;;;3.77;3.47;;;17.70;99.90;;;;;;5043441;28;20224;-65
2022/06/01 09:18:55;;;;;;;3.70;3.40;;;17.80;99.90;;;;;;5044997;28;20244;-65
2022/06/01 09:24:16;;;;;;;3.83;3.20;;;18.20;99.90;;;;;;5043941;28;20261;-65
2022/06/01 09:26:54;;;;;;;3.63;3.13;;;19.00;99.90;;;;;;5043428;28;20328;-65
2022/06/01 09:29:25;;;;;;;3.93;3.37;;;19.90;99.90;;;;;;5043414;28;20244;-65
2022/06/01 09:31:59;;;;;;;3.80;3.00;;;20.70;99.90;;;;;;5042500;28;20226;-65
2022/06/01 09:34:38;;;;;;;4.13;3.00;;;21.40;99.90;;;;;;5040292;28;20242;-65
2022/06/01 09:37:10;;;;;;;4.33;3.77;;;21.20;99.90;;;;;;5042960;28;20261;-65
2022/06/01 09:39:48;;;;;;;4.80;3.50;;;20.80;99.90;;;;;;5043125;28;20301;-65
2022/06/01 09:42:25;;;;;;;4.37;3.97;;;20.60;99.90;;;;;;5042903;28;20292;-65
2022/06/01 09:44:57;;;;;;;4.97;4.47;;;20.30;99.90;;;;;;5040363;28;20234;-65
2022/06/01 09:47:37;;;;;;;4.37;3.97;;;20.20;99.90;;;;;;5043342;28;20231;-64
2022/06/01 09:50:20;;;;;;;5.23;4.50;;;20.50;99.90;;;;;;5044744;28;20269;-64
2022/06/01 09:52:50;;;;;;;5.87;4.50;;;21.10;99.90;;;;;;5044915;28;20223;-64
2022/06/01 09:55:23;;;;;;;5.03;4.53;;;21.80;99.90;;;;;;5042473;28;20234;-64
2022/06/01 09:58:03;;;;;;;7.57;4.93;;;21.80;99.90;;;;;;5043619;28;20273;-65
2022/06/01 10:06:25;;;;;;;7.03;5.63;;;21.90;99.90;;;;;;5041143;28;21693;-64
2022/06/01 10:09:02;;;;;;;5.50;5.00;;;21.60;99.90;;;;;;5041334;28;20216;-64
2022/06/01 10:11:36;;;;;;;5.10;4.70;;;21.30;99.90;;;;;;5042120;28;20227;-65
2022/06/01 10:14:14;;;;;;;5.33;4.83;;;21.00;99.90;;;;;;5042335;28;20250;-65
2022/06/01 10:17:07;;;;;;;5.50;5.00;;;20.60;99.90;;;;;;5042076;28;20222;-64
2022/06/01 10:19:39;;;;;;;6.60;6.10;;;20.60;99.90;;;;;;5041079;28;20774;-64
2022/06/01 10:22:15;;;;;;;5.63;5.23;;;20.30;99.90;;;;;;5043069;28;20705;-64
2022/06/01 10:24:51;;;;;;;6.60;5.63;;;20.00;99.90;;;;;;5038997;28;20246;-65
2022/06/01 10:27:23;;;;;;;6.23;5.73;;;19.60;99.90;;;;;;5041841;28;20261;-65
2022/06/01 10:30:03;;;;;;;5.93;5.43;;;19.40;99.90;;;;;;5042014;28;20255;-65
2022/06/01 10:32:40;;;;;;;5.80;5.27;;;19.20;99.90;;;;;;5041760;28;20243;-65
2022/06/01 10:35:15;;;;;;;5.90;5.30;;;19.00;99.90;;;;;;5040138;28;20761;-65
2022/06/01 10:37:56;;;;;;;5.37;4.87;;;19.00;99.90;;;;;;5042244;28;20267;-65
2022/06/01 10:40:34;;;;;;;5.20;4.70;;;19.00;99.90;;;;;;5041807;28;20222;-65
2022/06/01 10:43:19;;;;;;;5.17;4.70;;;19.20;99.90;;;;;;5041433;28;20325;-65
2022/06/01 10:45:54;;;;;;;5.07;4.67;;;19.50;99.90;;;;;;5038494;28;20227;-65
2022/06/01 10:48:30;;;;;;;5.80;5.20;;;20.00;99.90;;;;;;5041648;28;20725;-65
2022/06/01 10:51:05;;;;;;;5.33;4.70;;;20.20;99.90;;;;;;5041784;28;20883;-64
2022/06/01 10:53:49;;;;;;;5.53;5.03;;;20.90;99.90;;;;;;5041671;28;20235;-64
2022/06/01 10:56:20;;;;;;;5.73;5.33;;;21.60;99.90;;;;;;5039061;28;20989;-64
2022/06/01 10:58:50;;;;;;;5.53;5.03;;;21.90;99.90;;;;;;5043473;28;20277;-65
2022/06/01 11:01:32;;;;;;;4.83;4.43;;;22.10;99.90;;;;;;5043210;28;20247;-65
2022/06/01 11:04:46;;;;;;;5.77;5.27;;;22.50;99.90;;;;;;5042247;28;20241;-65
2022/06/01 11:07:44;;;;;;;5.73;5.23;;;22.90;99.90;;;;;;4995082;28;20370;-64
2022/06/01 11:10:22;;;;;;;7.90;7.20;;;22.90;99.90;;;;;;5041847;28;20282;-64
2022/06/01 11:13:03;;;;;;;9.83;7.77;;;23.20;99.90;;;;;;5040008;28;20224;-64
2022/06/01 11:15:40;;;;;;;8.00;7.30;;;23.20;99.90;;;;;;5039131;28;20314;-64
2022/06/01 11:18:28;;;;;;;8.60;7.70;;;23.20;99.90;;;;;;5040049;28;20714;-64
2022/06/01 11:21:09;;;;;;;8.50;7.80;;;22.70;99.90;;;;;;5041332;28;20770;-64
2022/06/01 11:23:54;;;;;;;8.47;7.77;;;22.10;99.90;;;;;;5041398;28;20814;-64
2022/06/01 11:26:34;;;;;;;9.03;8.23;;;22.40;99.90;;;;;;5039007;28;20232;-64
2022/06/01 11:29:28;;;;;;;8.97;8.27;;;22.60;99.90;;;;;;5040715;28;20271;-64
2022/06/01 11:32:04;;;;;;;9.63;8.80;;;22.70;99.90;;;;;;5041434;28;20255;-64
2022/06/01 11:34:41;;;;;;;8.67;7.97;;;22.50;99.90;;;;;;5039521;28;20232;-64
2022/06/01 11:37:17;;;;;;;10.93;10.03;;;22.30;99.90;;;;;;5041656;28;20749;-64
2022/06/01 11:39:50;;;;;;;10.90;9.80;;;22.40;99.90;;;;;;5041434;28;20262;-64
2022/06/01 11:42:26;;;;;;;11.57;10.40;;;22.90;99.90;;;;;;5040558;28;20236;-64
2022/06/01 11:44:59;;;;;;;9.90;9.03;;;23.20;99.90;;;;;;5038269;28;20695;-64
2022/06/01 11:47:33;;;;;;;8.10;7.40;;;23.80;99.90;;;;;;5040519;28;20266;-62
2022/06/01 11:50:13;;;;;;;10.47;9.40;;;24.20;99.90;;;;;;5040571;28;20311;-62
2022/06/01 11:52:46;;;;;;;11.23;10.27;;;23.80;99.90;;;;;;5041383;28;20740;-62
2022/06/01 11:55:46;;;;;;;11.57;10.47;;;23.00;99.90;;;;;;5038549;28;20311;-62
2022/06/01 11:58:20;;;;;;;14.23;12.90;;;22.20;99.90;;;;;;5040610;28;20235;-62
2022/06/01 12:00:57;;;;;;;14.73;13.27;;;21.30;99.90;;;;;;5044735;28;20234;-62
2022/06/01 12:03:39;;;;;;;15.90;14.23;;;20.60;99.90;;;;;;5044500;28;20224;-62
2022/06/01 12:06:11;;;;;;;24.90;15.20;;;20.30;99.90;;;;;;5043091;28;20278;-62
2022/06/01 12:08:46;;;;;;;20.77;15.60;;;20.20;99.90;;;;;;5044938;28;20267;-62
2022/06/01 12:11:36;;;;;;;26.40;17.67;;;20.10;99.90;;;;;;5045241;28;20755;-65
2022/06/01 12:14:30;;;;;;;22.97;17.17;;;19.70;99.90;;;;;;5043348;28;20242;-65
2022/06/01 12:17:28;;;;;;;26.57;17.87;;;19.30;99.90;;;;;;5043999;28;20263;-65
2022/06/01 12:20:33;;;;;;;20.70;16.53;;;18.80;99.90;;;;;;5045059;28;20301;-65
2022/06/01 12:29:40;;;;;;;18.00;16.10;;;17.80;99.90;;;;;;5042116;28;20235;-65
2022/06/01 12:32:14;;;;;;;18.10;16.27;;;17.70;99.90;;;;;;5042963;28;20253;-65
2022/06/01 12:35:00;;;;;;;18.90;17.00;;;17.60;99.90;;;;;;5039774;28;20325;-64
2022/06/01 12:37:36;;;;;;;18.97;17.10;;;17.50;99.90;;;;;;5042754;28;20317;-64
2022/06/01 12:40:11;;;;;;;18.50;16.70;;;17.50;99.90;;;;;;5043921;28;21022;-64
2022/06/01 12:42:44;;;;;;;17.63;16.00;;;17.50;99.90;;;;;;5043271;28;20399;-64
2022/06/01 12:45:19;;;;;;;18.43;16.73;;;17.40;99.90;;;;;;5040175;28;20369;-64
2022/06/01 12:47:55;;;;;;;17.70;16.10;;;17.60;99.90;;;;;;5042875;28;20334;-64
2022/06/01 12:50:26;;;;;;;7.33;6.73;;;17.40;99.90;;;;;;5042910;28;20312;-64
2022/06/01 12:53:12;;;;;;;6.23;5.73;;;17.10;99.90;;;;;;5043514;28;20572;-65
2022/06/01 12:55:41;;;;;;;5.10;4.40;;;16.60;99.90;;;;;;5038962;28;20654;-64
2022/06/01 12:58:15;;;;;;;5.77;4.63;;;16.30;99.90;;;;;;5042134;28;20711;-64
2022/06/01 13:00:51;;;;;;;3.80;3.50;;;16.30;99.90;;;;;;5043814;28;20710;-65
2022/06/01 13:03:24;;;;;;;3.87;3.53;;;16.20;99.90;;;;;;5042583;28;20237;-65
2022/06/01 13:05:56;;;;;;;2.90;2.70;;;16.20;99.90;;;;;;5041161;28;20709;-65
2022/06/01 13:08:26;;;;;;;3.90;3.33;;;16.00;99.90;;;;;;5042398;28;20638;-65
2022/06/01 13:11:11;;;;;;;4.67;2.90;;;15.90;99.90;;;;;;5043361;28;20240;-64
2022/06/01 13:13:41;;;;;;;3.40;3.10;;;15.80;99.90;;;;;;5043716;28;20232;-64
2022/06/01 13:16:11;;;;;;;5.13;3.30;;;15.80;99.90;;;;;;5040125;28;20815;-64
2022/06/01 13:18:43;;;;;;;3.33;3.03;;;15.60;99.90;;;;;;5042866;28;20244;-64
2022/06/01 13:21:17;;;;;;;4.57;3.67;;;15.40;99.90;;;;;;5044185;28;20232;-64
2022/06/01 13:23:55;;;;;;;5.90;3.10;;;15.30;99.90;;;;;;5043526;28;20316;-65
2022/06/01 13:26:37;;;;;;;8.33;4.90;;;15.00;99.90;;;;;;5041984;28;20259;-64
2022/06/01 13:29:12;;;;;;;9.83;4.70;;;14.50;99.90;;;;;;5043482;28;20715;-65
2022/06/01 13:31:43;;;;;;;7.23;5.00;;;13.90;99.90;;;;;;5043060;28;20223;-64
2022/06/01 13:34:20;;;;;;;9.27;5.10;;;13.40;99.90;;;;;;5041714;28;20293;-64
2022/06/01 13:36:50;;;;;;;7.73;5.07;;;13.00;99.90;;;;;;5041010;28;20723;-64
2022/06/01 13:39:30;;;;;;;8.00;4.50;;;12.60;99.90;;;;;;5040577;28;20567;-64
2022/06/01 13:42:00;;;;;;;10.03;4.77;;;12.80;99.90;;;;;;5042969;28;20476;-64
2022/06/01 13:44:48;;;;;;;8.57;4.50;;;12.70;99.90;;;;;;5040535;28;20370;-64
2022/06/01 13:47:23;;;;;;;7.60;4.70;;;12.60;99.90;;;;;;5042209;28;20318;-64